Holdridge, Nebraska
Current Conditions -  °F | °C
As of 8:35 AM on Friday 28 Nov 2014 (Local Time) from KHDE Reporting Station
Clear Clear  
Wind Chill:   Ceiling: Unl
Heat Index:   Visibility: 10mi
Dew Point: -3°   Wind: 3mph
Humidity: 61%   Direction: 240°WSW
Pressure: 29.84"   Gusts: NA
Location:  40.4958°N, 99.3198°W
Report Text: KHDE 281435Z AUTO 24003KT 10SM CLR 04/M03 A2984 RMK AO2 T00391030
Loading
Personal Weather Stations






























Interactive Weather Map New forecast layout! Learn more

10-Day Weather Forecast

Advertisements
Track Severe Weather on mobile